createdAt,value
2023-04-02T02:44:09.233Z,102610.53
2023-04-02T02:46:53.947Z,102617.56
2023-04-02T02:49:33.052Z,102613.00
2023-04-02T02:52:08.554Z,102626.47
2023-04-02T02:55:35.268Z,102622.63
2023-04-02T02:59:04.692Z,102623.75
2023-04-02T03:06:23.722Z,102626.56
2023-04-02T03:09:22.718Z,102627.59
2023-04-02T03:12:18.152Z,102635.75
2023-04-02T03:15:24.838Z,102639.31
2023-04-02T03:18:51.383Z,102637.69
2023-04-02T03:22:32.659Z,102641.38
2023-04-02T03:26:02.400Z,102654.47
2023-04-02T03:28:40.698Z,102650.13
2023-04-02T03:32:16.829Z,102646.53
2023-04-02T03:35:32.348Z,102663.97
2023-04-02T03:39:05.006Z,102665.91
2023-04-02T03:42:41.076Z,102672.44
2023-04-02T03:46:16.540Z,102668.09
2023-04-02T03:49:45.914Z,102676.16
2023-04-02T03:53:12.508Z,102674.19
2023-04-02T03:56:39.120Z,102681.34
2023-04-02T04:00:07.330Z,102685.81
2023-04-02T04:02:57.840Z,102687.75
2023-04-02T04:09:47.422Z,102676.66
2023-04-02T04:13:08.919Z,102674.94
2023-04-02T04:15:42.249Z,102673.19
2023-04-02T04:18:41.957Z,102671.69
2023-04-02T04:22:23.554Z,102678.09
2023-04-02T04:25:55.486Z,102682.69
2023-04-02T04:29:46.574Z,102691.91
2023-04-02T04:32:47.796Z,102684.75
2023-04-02T04:35:53.080Z,102690.19
2023-04-02T04:38:27.962Z,102693.13
2023-04-02T04:45:29.731Z,102701.53
2023-04-02T04:48:27.644Z,102699.78
2023-04-02T04:51:59.957Z,102703.47
2023-04-02T04:59:10.990Z,102700.25
2023-04-02T05:02:00.159Z,102706.53
2023-04-02T05:05:26.736Z,102711.97
2023-04-02T05:09:05.183Z,102717.50
2023-04-02T05:15:25.307Z,102735.75
2023-04-02T05:18:53.412Z,102737.47
2023-04-02T05:22:09.057Z,102738.47
2023-04-02T05:25:07.752Z,102738.47
2023-04-02T05:27:52.851Z,102743.03
2023-04-02T05:30:45.516Z,102752.25
2023-04-02T05:34:17.893Z,102755.22
2023-04-02T05:37:44.319Z,102756.06
2023-04-02T05:41:11.084Z,102762.56
2023-04-02T06:02:42.932Z,102793.22
2023-04-02T06:05:17.449Z,102794.97
2023-04-02T06:07:50.761Z,102798.53
2023-04-02T06:11:23.068Z,102806.66
2023-04-02T06:14:49.663Z,102803.84
2023-04-02T06:21:59.179Z,102825.78
2023-04-02T06:24:29.304Z,102825.56
2023-04-02T06:27:03.032Z,102826.31
2023-04-02T06:30:15.540Z,102827.06
2023-04-02T06:37:33.095Z,102834.78
2023-04-02T06:40:51.990Z,102840.09
2023-04-02T06:48:06.861Z,102856.16
2023-04-02T06:50:48.642Z,102853.34
2023-04-02T06:54:21.696Z,102866.44
2023-04-02T06:57:48.191Z,102871.69
2023-04-02T07:00:23.933Z,102869.59
2023-04-02T07:03:36.285Z,102875.69
2023-04-02T07:07:03.512Z,102878.03
2023-04-02T07:10:12.565Z,102892.28
2023-04-02T07:13:39.169Z,102886.28
2023-04-02T07:17:05.759Z,102887.78
2023-04-02T07:23:26.751Z,102883.88
2023-04-02T07:26:53.287Z,102891.66
2023-04-02T07:29:20.106Z,102901.44
2023-04-02T07:32:48.621Z,102907.75
2023-04-02T07:35:15.510Z,102909.47
2023-04-02T07:42:34.608Z,102910.56
2023-04-02T07:46:01.186Z,102912.69
2023-04-02T07:49:27.717Z,102914.06
2023-04-02T07:52:54.280Z,102920.56
2023-04-02T08:00:04.242Z,102925.81
2023-04-02T08:03:30.782Z,102929.06
2023-04-02T08:09:50.107Z,102941.13
2023-04-02T08:13:13.165Z,102941.28
2023-04-02T08:16:22.120Z,102942.34
2023-04-02T08:23:44.456Z,102954.25
2023-04-02T08:27:14.163Z,102960.72
2023-04-02T08:30:40.727Z,102953.84
2023-04-02T08:33:11.603Z,102942.47
2023-04-02T08:36:23.292Z,102943.47
2023-04-02T08:43:41.903Z,102928.50
2023-04-02T08:47:26.648Z,102933.19
2023-04-02T08:50:48.043Z,102933.06
2023-04-02T08:54:14.522Z,102937.91
2023-04-02T08:57:44.134Z,102948.69
2023-04-02T09:01:13.590Z,102948.91
2023-04-02T09:04:40.168Z,102957.53
2023-04-02T09:11:40.573Z,102970.13
2023-04-02T09:15:07.080Z,102968.44
2023-04-02T09:17:42.663Z,102962.38
2023-04-02T09:20:24.378Z,102964.63
2023-04-02T09:22:53.381Z,102968.84
2023-04-02T09:29:32.821Z,102979.97
2023-04-02T09:33:17.469Z,102973.66
2023-04-02T09:36:10.561Z,102973.09
2023-04-02T09:39:37.158Z,102975.00
2023-04-02T09:43:09.363Z,102978.38
2023-04-02T09:46:16.002Z,102978.94
2023-04-02T09:49:14.812Z,102996.31
2023-04-02T09:52:27.295Z,102990.19
2023-04-02T09:59:19.434Z,102986.78
2023-04-02T10:02:15.278Z,102987.25
2023-04-02T10:05:44.961Z,102998.75
2023-04-02T10:12:53.224Z,103006.94
2023-04-02T10:16:23.894Z,103007.59
2023-04-02T10:19:34.953Z,103001.78
2023-04-02T10:23:01.390Z,103005.19
2023-04-02T10:26:33.761Z,102995.78
2023-04-02T10:33:17.982Z,103011.63
2023-04-02T10:36:48.912Z,103016.94
2023-04-02T10:40:10.718Z,103020.72
2023-04-02T10:43:40.766Z,103026.13
2023-04-02T10:51:35.371Z,103028.25
2023-04-02T10:55:22.752Z,103027.97
2023-04-02T11:02:32.127Z,103033.03
2023-04-02T11:05:59.965Z,103026.78
2023-04-02T11:13:20.877Z,103027.25
2023-04-02T11:44:03.001Z,103031.09
2023-04-02T11:46:46.151Z,103034.69
2023-04-02T11:49:40.037Z,103036.44
2023-04-02T11:52:22.753Z,103035.63
2023-04-02T11:55:35.952Z,103035.84
2023-04-02T11:58:41.571Z,103030.44
2023-04-02T12:01:26.779Z,103037.13
2023-04-02T12:04:22.731Z,103030.47
2023-04-02T12:07:27.940Z,103036.03
2023-04-02T12:14:00.199Z,103039.66
2023-04-02T12:16:45.738Z,103038.00
2023-04-02T12:20:12.371Z,103040.53
2023-04-02T12:22:46.687Z,103044.59
2023-04-02T12:25:40.332Z,103029.97
2023-04-02T12:28:10.061Z,103032.38
2023-04-02T12:30:38.534Z,103020.72
2023-04-02T12:33:21.219Z,103032.06
2023-04-02T12:35:50.763Z,103031.66
2023-04-02T12:38:22.425Z,103023.78
2023-04-02T12:40:57.614Z,103035.06
2023-04-02T12:43:33.530Z,103023.13
2023-04-02T12:46:03.186Z,103024.09
2023-04-02T12:48:31.314Z,103026.28
2023-04-02T12:50:58.932Z,103028.13
2023-04-02T12:53:33.751Z,103015.97
2023-04-02T12:56:01.262Z,103033.22
2023-04-02T12:58:30.044Z,103027.56
2023-04-02T13:01:20.127Z,103029.69
2023-04-02T13:04:01.566Z,103027.78
2023-04-02T13:06:30.708Z,103022.69
2023-04-02T13:08:57.876Z,103030.19
2023-04-02T13:11:34.791Z,103024.63
2023-04-02T13:14:03.107Z,103033.59
2023-04-02T13:16:35.323Z,103030.13
2023-04-02T13:19:17.391Z,103024.84
2023-04-02T13:21:45.625Z,103022.34
2023-04-02T13:24:22.747Z,103030.53
2023-04-02T13:26:51.123Z,103016.47
2023-04-02T13:29:24.610Z,103006.06
2023-04-02T13:31:53.791Z,103018.44
2023-04-02T13:34:20.594Z,103000.50
2023-04-02T13:36:47.824Z,103011.16
2023-04-02T13:39:15.530Z,103003.78
2023-04-02T13:41:57.033Z,103008.72
2023-04-02T13:44:29.536Z,102989.53
2023-04-02T13:46:57.134Z,103001.25
2023-04-02T13:49:25.184Z,103012.94
2023-04-02T13:51:55.413Z,103007.06
2023-04-02T13:54:35.042Z,103023.72
2023-04-02T13:57:02.561Z,103020.22
2023-04-02T13:59:30.376Z,103014.06
2023-04-02T14:02:04.259Z,103009.53
2023-04-02T14:04:38.316Z,103006.72
2023-04-02T14:07:17.717Z,103012.03
2023-04-02T14:10:12.163Z,103008.00
2023-04-02T14:13:07.122Z,103010.56
2023-04-02T14:15:40.514Z,103012.53
2023-04-02T14:18:27.604Z,103015.59
2023-04-02T14:21:06.529Z,103028.13
2023-04-02T14:23:36.619Z,103026.66
2023-04-02T14:26:29.391Z,103003.56
2023-04-02T14:29:10.336Z,103016.06
2023-04-02T14:31:44.374Z,102995.44
2023-04-02T14:34:32.858Z,103005.56
2023-04-02T14:37:06.095Z,103020.59
2023-04-02T14:39:45.129Z,103010.53
2023-04-02T14:42:34.881Z,103029.78
2023-04-02T14:45:23.500Z,103040.16
2023-04-02T14:48:16.416Z,103023.19
2023-04-02T14:50:43.531Z,103033.59
2023-04-02T14:53:27.338Z,103011.84
2023-04-02T14:55:57.982Z,103009.13
2023-04-02T14:58:41.485Z,103015.66
2023-04-02T15:01:38.338Z,103025.66
2023-04-02T15:04:12.113Z,103009.59
2023-04-02T15:06:45.228Z,103021.19
2023-04-02T15:09:30.098Z,103016.91
2023-04-02T15:12:23.999Z,103013.22
2023-04-02T15:15:02.679Z,103001.84
2023-04-02T15:17:29.833Z,103017.00
2023-04-02T15:20:12.325Z,103019.09
2023-04-02T15:22:55.045Z,102997.84
2023-04-02T15:25:38.050Z,103006.56
2023-04-02T15:28:26.675Z,103001.53
2023-04-02T15:30:58.794Z,102996.41
2023-04-02T15:33:28.248Z,103001.75
2023-04-02T15:36:23.087Z,102994.44
2023-04-02T15:39:00.103Z,102994.81
2023-04-02T15:41:32.251Z,102987.38
2023-04-02T15:44:16.135Z,102988.53
2023-04-02T15:47:07.493Z,102989.97
2023-04-02T15:49:43.504Z,102969.63
2023-04-02T15:52:21.268Z,102981.03
2023-04-02T15:55:10.013Z,102973.19
2023-04-02T15:57:46.180Z,102981.31
2023-04-02T16:00:31.942Z,102974.25
2023-04-02T16:03:24.759Z,102980.25
2023-04-02T16:05:54.326Z,102977.91
2023-04-02T16:08:53.011Z,102967.06
2023-04-02T16:11:21.259Z,102969.31
2023-04-02T16:13:48.536Z,102962.63
2023-04-02T16:16:17.506Z,102972.88
2023-04-02T16:19:03.096Z,102973.03
2023-04-02T16:21:34.788Z,102968.75
2023-04-02T16:24:01.874Z,102968.78
2023-04-02T16:26:41.929Z,102965.84
2023-04-02T16:29:53.486Z,102972.66
2023-04-02T16:32:24.241Z,102975.75
2023-04-02T16:34:55.083Z,102989.34
2023-04-02T16:37:53.738Z,102985.69
2023-04-02T16:40:20.490Z,102982.56
2023-04-02T16:42:48.303Z,102987.00
2023-04-02T16:45:54.302Z,102985.16
2023-04-02T16:48:37.694Z,102985.84
2023-04-02T16:51:21.549Z,102979.06
2023-04-02T16:54:05.797Z,102970.19
2023-04-02T16:56:35.764Z,102972.66
2023-04-02T16:59:14.474Z,102972.19
2023-04-02T17:02:18.835Z,102968.75
2023-04-02T17:04:53.723Z,102971.47
2023-04-02T17:08:05.453Z,102978.19
2023-04-02T17:10:58.714Z,102967.69
2023-04-02T17:13:36.457Z,102968.19
2023-04-02T17:16:22.071Z,102973.22
2023-04-02T17:18:53.409Z,102978.47
2023-04-02T17:21:24.594Z,102974.78
2023-04-02T17:23:56.601Z,102975.41
2023-04-02T17:26:30.170Z,102975.00
2023-04-02T17:29:00.553Z,102980.00
2023-04-02T17:31:34.215Z,102974.56
2023-04-02T17:34:12.591Z,102975.50
2023-04-02T17:36:58.970Z,102979.66
2023-04-02T17:39:52.213Z,102982.75
2023-04-02T17:42:35.799Z,102989.41
2023-04-02T17:45:33.176Z,103002.38
2023-04-02T17:48:09.047Z,102998.00
2023-04-02T17:51:02.781Z,103001.31
2023-04-02T17:53:38.921Z,102995.66
2023-04-02T17:56:24.125Z,103000.69
2023-04-02T17:59:10.695Z,103004.47
2023-04-02T18:01:56.594Z,102995.84
2023-04-02T18:04:42.223Z,103003.94
2023-04-02T18:07:30.972Z,103003.06
2023-04-02T18:10:10.486Z,102999.91
2023-04-02T18:13:20.486Z,102999.22
2023-04-02T18:16:32.972Z,102995.56
2023-04-02T18:19:12.133Z,103000.44
2023-04-02T18:21:46.777Z,102997.25
2023-04-02T18:24:33.662Z,102993.78
2023-04-02T18:27:39.441Z,103011.34
2023-04-02T18:30:18.262Z,103002.09
2023-04-02T18:33:09.392Z,103006.69
2023-04-02T18:36:05.759Z,103004.03
2023-04-02T18:38:50.360Z,102999.50
2023-04-02T18:41:33.610Z,103003.66
2023-04-02T18:44:07.077Z,102997.00
2023-04-02T18:46:50.627Z,103004.31
2023-04-02T18:49:29.574Z,103001.19
2023-04-02T18:52:03.066Z,103002.00
2023-04-02T18:54:39.416Z,102999.81
2023-04-02T18:57:14.190Z,102995.25
2023-04-02T18:59:54.607Z,102993.19
2023-04-02T19:02:37.762Z,103000.78
2023-04-02T19:05:25.410Z,103003.19
2023-04-02T19:07:59.401Z,103017.16
2023-04-02T19:10:33.523Z,103009.66
2023-04-02T19:13:00.620Z,103012.25
2023-04-02T19:15:42.554Z,103023.69
2023-04-02T19:18:28.873Z,103021.09
2023-04-02T19:21:15.231Z,103019.00
2023-04-02T19:24:11.417Z,103025.19
2023-04-02T19:26:57.129Z,103019.59
2023-04-02T19:30:00.677Z,103023.97
2023-04-02T19:32:49.102Z,103026.94
2023-04-02T19:35:28.734Z,103017.63
2023-04-02T19:38:01.205Z,103023.72
2023-04-02T19:40:46.340Z,103025.22
2023-04-02T19:43:13.060Z,103030.66
2023-04-02T19:45:42.000Z,103023.38
2023-04-02T19:48:25.243Z,103031.44
2023-04-02T19:50:52.514Z,103028.09
2023-04-02T19:53:19.709Z,103025.97
2023-04-02T19:55:47.235Z,103027.97
2023-04-02T19:58:35.094Z,103019.53
2023-04-02T20:01:02.845Z,103020.28
2023-04-02T20:03:30.425Z,103021.28
2023-04-02T20:05:59.689Z,103028.94
2023-04-02T20:08:27.570Z,103021.16
2023-04-02T20:10:54.749Z,103020.78
2023-04-02T20:13:21.521Z,103025.25
2023-04-02T20:15:48.199Z,103021.03
2023-04-02T20:18:14.951Z,103024.00
2023-04-02T20:20:41.735Z,103013.56
2023-04-02T20:23:08.400Z,103016.16
2023-04-02T20:25:35.198Z,103009.59
2023-04-02T20:28:04.015Z,103017.28
2023-04-02T20:30:33.057Z,103016.03
2023-04-02T20:33:00.436Z,103018.03
2023-04-02T20:35:27.551Z,103026.44
2023-04-02T20:37:54.260Z,103023.66
2023-04-02T20:40:21.461Z,103026.06
2023-04-02T20:42:48.226Z,103025.41
2023-04-02T20:45:15.074Z,103026.16
2023-04-02T20:47:42.270Z,103028.75
2023-04-02T20:50:09.469Z,103030.59
2023-04-02T20:52:36.386Z,103032.69
2023-04-02T20:55:03.972Z,103030.47
2023-04-02T20:57:30.965Z,103027.66
2023-04-02T20:59:58.983Z,103019.22
2023-04-02T21:02:26.029Z,103024.41
2023-04-02T21:04:52.989Z,103025.91
2023-04-02T21:07:19.751Z,103032.97
2023-04-02T21:09:46.719Z,103030.38
2023-04-02T21:12:13.691Z,103036.28
2023-04-02T21:14:40.670Z,103033.19
2023-04-02T21:17:07.988Z,103040.50
2023-04-02T21:19:35.436Z,103040.22
2023-04-02T21:22:02.706Z,103045.53
2023-04-02T21:24:29.750Z,103050.09
2023-04-02T21:26:56.508Z,103047.63
2023-04-02T21:29:23.185Z,103052.44
2023-04-02T21:31:50.547Z,103040.56
2023-04-02T21:34:17.368Z,103040.13
2023-04-02T21:36:46.349Z,103029.34
2023-04-02T21:39:21.713Z,103037.75
2023-04-02T21:41:50.593Z,103033.06
2023-04-02T21:44:19.019Z,103033.19
2023-04-02T21:46:45.914Z,103037.84
2023-04-02T21:49:15.544Z,103032.25
2023-04-02T21:51:43.685Z,103033.47
2023-04-02T21:54:10.492Z,103034.91
2023-04-02T21:56:39.951Z,103034.06
2023-04-02T21:59:07.851Z,103037.34
2023-04-02T22:01:37.647Z,103040.41
2023-04-02T22:04:06.365Z,103034.56
2023-04-02T22:06:40.512Z,103032.06
2023-04-02T22:09:13.633Z,103031.94
2023-04-02T22:11:46.919Z,103030.63
2023-04-02T22:14:14.357Z,103033.69
2023-04-02T22:16:41.907Z,103023.06
2023-04-02T22:19:11.923Z,103027.41
2023-04-02T22:21:39.690Z,103035.66
2023-04-02T22:24:11.907Z,103018.47
2023-04-02T22:26:40.490Z,103024.03
2023-04-02T22:29:07.291Z,103024.03
2023-04-02T22:31:35.382Z,103032.44
2023-04-02T22:34:04.129Z,103029.94
2023-04-02T22:36:34.379Z,103027.66
2023-04-02T22:39:02.805Z,103022.44
2023-04-02T22:41:32.057Z,103020.94
2023-04-02T22:44:01.196Z,103021.28
2023-04-02T22:46:29.336Z,103024.13
2023-04-02T22:48:56.400Z,103017.91
2023-04-02T22:51:24.986Z,103012.59
2023-04-02T22:53:54.419Z,103019.13
2023-04-02T22:56:24.620Z,103024.91
2023-04-02T22:58:51.320Z,103020.66
2023-04-02T23:01:21.498Z,103024.47
2023-04-02T23:03:48.729Z,103026.41
2023-04-02T23:06:18.124Z,103022.28
2023-04-02T23:08:45.559Z,103023.19
2023-04-02T23:11:18.562Z,103027.66
2023-04-02T23:13:47.583Z,103025.13
2023-04-02T23:16:15.048Z,103024.50
2023-04-02T23:18:43.210Z,103022.31
2023-04-02T23:21:10.709Z,103019.59
2023-04-02T23:23:37.578Z,103029.84
2023-04-02T23:26:13.945Z,103019.09
2023-04-02T23:28:41.517Z,103020.38
2023-04-02T23:31:12.132Z,103021.38
2023-04-02T23:33:39.126Z,103019.19
2023-04-02T23:36:23.046Z,103021.34
2023-04-02T23:38:55.491Z,103012.13
2023-04-02T23:41:24.417Z,103012.44
2023-04-02T23:43:51.610Z,103008.84
2023-04-02T23:46:18.476Z,103001.38
2023-04-02T23:48:46.052Z,103000.81
2023-04-02T23:51:13.627Z,102995.28
2023-04-02T23:53:40.485Z,102993.22
2023-04-02T23:56:07.499Z,102994.63
2023-04-02T23:58:34.325Z,102988.00
